sensor_id;sensor_type;location;lat;lon;timestamp;P1;durP1;ratioP1;P2;durP2;ratioP2
14251;SDS011;7210;51.502;10.722;2024-03-08T00:01:45;32.00;;;23.90;;
14251;SDS011;7210;51.502;10.722;2024-03-08T00:04:12;31.90;;;24.50;;
14251;SDS011;7210;51.502;10.722;2024-03-08T00:06:42;37.33;;;24.33;;
14251;SDS011;7210;51.502;10.722;2024-03-08T00:09:11;31.73;;;23.40;;
14251;SDS011;7210;51.502;10.722;2024-03-08T00:11:43;33.83;;;24.27;;
14251;SDS011;7210;51.502;10.722;2024-03-08T00:14:13;34.97;;;24.53;;
14251;SDS011;7210;51.502;10.722;2024-03-08T00:16:43;35.80;;;25.63;;
14251;SDS011;7210;51.502;10.722;2024-03-08T00:19:11;34.17;;;24.93;;
14251;SDS011;7210;51.502;10.722;2024-03-08T00:21:38;31.03;;;23.33;;
14251;SDS011;7210;51.502;10.722;2024-03-08T00:24:06;31.80;;;23.63;;
14251;SDS011;7210;51.502;10.722;2024-03-08T00:26:37;37.47;;;24.30;;
14251;SDS011;7210;51.502;10.722;2024-03-08T00:29:05;35.07;;;24.10;;
14251;SDS011;7210;51.502;10.722;2024-03-08T00:31:32;33.43;;;23.63;;
14251;SDS011;7210;51.502;10.722;2024-03-08T00:34:00;34.33;;;23.80;;
14251;SDS011;7210;51.502;10.722;2024-03-08T00:36:31;32.00;;;23.10;;
14251;SDS011;7210;51.502;10.722;2024-03-08T00:38:59;32.57;;;23.43;;
14251;SDS011;7210;51.502;10.722;2024-03-08T00:41:28;33.83;;;23.93;;
14251;SDS011;7210;51.502;10.722;2024-03-08T00:43:55;30.43;;;22.10;;
14251;SDS011;7210;51.502;10.722;2024-03-08T00:46:25;34.93;;;23.77;;
14251;SDS011;7210;51.502;10.722;2024-03-08T00:48:55;33.70;;;22.93;;
14251;SDS011;7210;51.502;10.722;2024-03-08T00:51:25;33.37;;;23.63;;
14251;SDS011;7210;51.502;10.722;2024-03-08T00:53:53;31.23;;;23.77;;
14251;SDS011;7210;51.502;10.722;2024-03-08T00:56:20;29.30;;;21.63;;
14251;SDS011;7210;51.502;10.722;2024-03-08T00:58:48;28.97;;;22.40;;
14251;SDS011;7210;51.502;10.722;2024-03-08T01:01:16;31.97;;;23.07;;
14251;SDS011;7210;51.502;10.722;2024-03-08T01:03:45;32.17;;;23.07;;
14251;SDS011;7210;51.502;10.722;2024-03-08T01:06:13;30.50;;;22.97;;
14251;SDS011;7210;51.502;10.722;2024-03-08T01:08:40;31.37;;;22.97;;
14251;SDS011;7210;51.502;10.722;2024-03-08T01:11:08;31.83;;;23.57;;
14251;SDS011;7210;51.502;10.722;2024-03-08T01:13:37;33.37;;;22.83;;
14251;SDS011;7210;51.502;10.722;2024-03-08T01:16:05;29.70;;;22.70;;
14251;SDS011;7210;51.502;10.722;2024-03-08T01:18:33;32.20;;;23.50;;
14251;SDS011;7210;51.502;10.722;2024-03-08T01:21:00;34.93;;;23.37;;
14251;SDS011;7210;51.502;10.722;2024-03-08T01:23:27;33.33;;;23.40;;
14251;SDS011;7210;51.502;10.722;2024-03-08T01:25:54;36.00;;;25.03;;
14251;SDS011;7210;51.502;10.722;2024-03-08T01:28:23;37.23;;;24.70;;
14251;SDS011;7210;51.502;10.722;2024-03-08T01:30:50;34.97;;;24.73;;
14251;SDS011;7210;51.502;10.722;2024-03-08T01:33:22;33.40;;;25.07;;
14251;SDS011;7210;51.502;10.722;2024-03-08T01:35:55;31.37;;;23.53;;
14251;SDS011;7210;51.502;10.722;2024-03-08T01:38:23;32.83;;;24.43;;
14251;SDS011;7210;51.502;10.722;2024-03-08T01:40:50;35.70;;;25.27;;
14251;SDS011;7210;51.502;10.722;2024-03-08T01:43:18;37.27;;;26.13;;
14251;SDS011;7210;51.502;10.722;2024-03-08T01:45:46;33.73;;;22.93;;
14251;SDS011;7210;51.502;10.722;2024-03-08T01:48:14;34.63;;;24.63;;
14251;SDS011;7210;51.502;10.722;2024-03-08T01:50:45;39.83;;;27.13;;
14251;SDS011;7210;51.502;10.722;2024-03-08T01:53:12;32.80;;;24.57;;
14251;SDS011;7210;51.502;10.722;2024-03-08T01:55:41;34.40;;;25.23;;
14251;SDS011;7210;51.502;10.722;2024-03-08T01:58:14;39.17;;;27.40;;
14251;SDS011;7210;51.502;10.722;2024-03-08T02:00:42;34.27;;;25.87;;
14251;SDS011;7210;51.502;10.722;2024-03-08T02:03:14;37.53;;;26.43;;
14251;SDS011;7210;51.502;10.722;2024-03-08T02:05:41;33.73;;;25.27;;
14251;SDS011;7210;51.502;10.722;2024-03-08T02:08:10;34.47;;;26.20;;
14251;SDS011;7210;51.502;10.722;2024-03-08T02:10:39;35.83;;;25.87;;
14251;SDS011;7210;51.502;10.722;2024-03-08T02:13:07;36.40;;;27.00;;
14251;SDS011;7210;51.502;10.722;2024-03-08T02:15:52;36.33;;;25.67;;
14251;SDS011;7210;51.502;10.722;2024-03-08T02:18:20;34.77;;;25.83;;
14251;SDS011;7210;51.502;10.722;2024-03-08T02:20:50;34.77;;;25.03;;
14251;SDS011;7210;51.502;10.722;2024-03-08T02:23:18;33.60;;;24.27;;
14251;SDS011;7210;51.502;10.722;2024-03-08T02:25:45;33.97;;;24.90;;
14251;SDS011;7210;51.502;10.722;2024-03-08T02:28:13;33.63;;;24.70;;
14251;SDS011;7210;51.502;10.722;2024-03-08T02:30:41;36.73;;;25.13;;
14251;SDS011;7210;51.502;10.722;2024-03-08T02:33:08;37.80;;;25.17;;
14251;SDS011;7210;51.502;10.722;2024-03-08T02:35:35;35.37;;;25.50;;
14251;SDS011;7210;51.502;10.722;2024-03-08T02:38:04;34.07;;;23.97;;
14251;SDS011;7210;51.502;10.722;2024-03-08T02:40:31;35.57;;;26.27;;
14251;SDS011;7210;51.502;10.722;2024-03-08T02:42:58;38.70;;;25.53;;
14251;SDS011;7210;51.502;10.722;2024-03-08T02:45:25;37.80;;;26.33;;
14251;SDS011;7210;51.502;10.722;2024-03-08T02:47:55;39.67;;;26.57;;
14251;SDS011;7210;51.502;10.722;2024-03-08T02:50:23;36.27;;;26.17;;
14251;SDS011;7210;51.502;10.722;2024-03-08T02:52:50;38.53;;;28.07;;
14251;SDS011;7210;51.502;10.722;2024-03-08T02:55:19;39.93;;;26.33;;
14251;SDS011;7210;51.502;10.722;2024-03-08T02:57:46;38.63;;;26.37;;
14251;SDS011;7210;51.502;10.722;2024-03-08T03:00:13;38.27;;;26.47;;
14251;SDS011;7210;51.502;10.722;2024-03-08T03:02:43;37.93;;;26.63;;
14251;SDS011;7210;51.502;10.722;2024-03-08T03:05:11;38.67;;;26.57;;
14251;SDS011;7210;51.502;10.722;2024-03-08T03:07:39;36.20;;;27.33;;
14251;SDS011;7210;51.502;10.722;2024-03-08T03:10:06;36.57;;;26.50;;
14251;SDS011;7210;51.502;10.722;2024-03-08T03:12:36;37.60;;;25.40;;
14251;SDS011;7210;51.502;10.722;2024-03-08T03:15:03;36.40;;;25.83;;
14251;SDS011;7210;51.502;10.722;2024-03-08T03:17:31;36.53;;;25.23;;
14251;SDS011;7210;51.502;10.722;2024-03-08T03:19:59;34.90;;;24.67;;
14251;SDS011;7210;51.502;10.722;2024-03-08T03:22:31;37.87;;;26.83;;
14251;SDS011;7210;51.502;10.722;2024-03-08T03:25:00;35.33;;;25.33;;
14251;SDS011;7210;51.502;10.722;2024-03-08T03:27:27;39.40;;;27.13;;
14251;SDS011;7210;51.502;10.722;2024-03-08T03:29:56;40.30;;;26.87;;
14251;SDS011;7210;51.502;10.722;2024-03-08T03:32:25;36.90;;;26.20;;
14251;SDS011;7210;51.502;10.722;2024-03-08T03:34:53;36.50;;;27.00;;
14251;SDS011;7210;51.502;10.722;2024-03-08T03:37:20;38.00;;;27.20;;
14251;SDS011;7210;51.502;10.722;2024-03-08T03:39:49;38.37;;;26.07;;
14251;SDS011;7210;51.502;10.722;2024-03-08T03:42:19;34.83;;;25.93;;
14251;SDS011;7210;51.502;10.722;2024-03-08T03:44:47;36.80;;;25.93;;
14251;SDS011;7210;51.502;10.722;2024-03-08T03:47:16;36.53;;;26.20;;
14251;SDS011;7210;51.502;10.722;2024-03-08T03:49:43;36.57;;;25.93;;
14251;SDS011;7210;51.502;10.722;2024-03-08T03:52:11;39.37;;;27.17;;
14251;SDS011;7210;51.502;10.722;2024-03-08T03:54:38;37.60;;;27.47;;
14251;SDS011;7210;51.502;10.722;2024-03-08T03:57:05;36.20;;;25.93;;
14251;SDS011;7210;51.502;10.722;2024-03-08T03:59:33;40.63;;;28.03;;
14251;SDS011;7210;51.502;10.722;2024-03-08T04:02:00;38.07;;;27.67;;
14251;SDS011;7210;51.502;10.722;2024-03-08T04:04:33;38.10;;;26.67;;
14251;SDS011;7210;51.502;10.722;2024-03-08T04:07:00;43.10;;;27.57;;
14251;SDS011;7210;51.502;10.722;2024-03-08T04:09:27;38.60;;;27.17;;
14251;SDS011;7210;51.502;10.722;2024-03-08T04:11:54;40.87;;;27.43;;
14251;SDS011;7210;51.502;10.722;2024-03-08T04:14:22;40.23;;;27.47;;
14251;SDS011;7210;51.502;10.722;2024-03-08T04:16:49;39.23;;;27.10;;
14251;SDS011;7210;51.502;10.722;2024-03-08T04:19:18;36.53;;;26.90;;
14251;SDS011;7210;51.502;10.722;2024-03-08T04:21:46;37.33;;;27.40;;
14251;SDS011;7210;51.502;10.722;2024-03-08T04:24:13;38.67;;;27.73;;
14251;SDS011;7210;51.502;10.722;2024-03-08T04:26:42;39.73;;;27.73;;
14251;SDS011;7210;51.502;10.722;2024-03-08T04:29:09;41.53;;;28.07;;
14251;SDS011;7210;51.502;10.722;2024-03-08T04:31:37;37.17;;;28.33;;
14251;SDS011;7210;51.502;10.722;2024-03-08T04:34:05;39.97;;;27.80;;
14251;SDS011;7210;51.502;10.722;2024-03-08T04:36:32;38.47;;;27.30;;
14251;SDS011;7210;51.502;10.722;2024-03-08T04:39:00;40.87;;;27.50;;
14251;SDS011;7210;51.502;10.722;2024-03-08T04:41:28;41.53;;;28.70;;
14251;SDS011;7210;51.502;10.722;2024-03-08T04:43:56;41.33;;;28.43;;
14251;SDS011;7210;51.502;10.722;2024-03-08T04:46:23;44.33;;;29.33;;
14251;SDS011;7210;51.502;10.722;2024-03-08T04:48:50;42.20;;;29.13;;
14251;SDS011;7210;51.502;10.722;2024-03-08T04:51:17;46.53;;;29.43;;
14251;SDS011;7210;51.502;10.722;2024-03-08T04:53:45;45.33;;;29.80;;
14251;SDS011;7210;51.502;10.722;2024-03-08T04:56:15;41.33;;;28.97;;
14251;SDS011;7210;51.502;10.722;2024-03-08T04:58:44;39.73;;;28.10;;
14251;SDS011;7210;51.502;10.722;2024-03-08T05:01:12;44.17;;;29.23;;
14251;SDS011;7210;51.502;10.722;2024-03-08T05:03:39;40.53;;;28.73;;
14251;SDS011;7210;51.502;10.722;2024-03-08T05:06:06;43.53;;;30.10;;
14251;SDS011;7210;51.502;10.722;2024-03-08T05:08:34;48.80;;;29.57;;
14251;SDS011;7210;51.502;10.722;2024-03-08T05:11:01;40.60;;;28.70;;
14251;SDS011;7210;51.502;10.722;2024-03-08T05:13:33;43.97;;;29.77;;
14251;SDS011;7210;51.502;10.722;2024-03-08T05:16:02;45.50;;;30.10;;
14251;SDS011;7210;51.502;10.722;2024-03-08T05:18:29;41.63;;;29.83;;
14251;SDS011;7210;51.502;10.722;2024-03-08T05:20:57;41.53;;;30.43;;
14251;SDS011;7210;51.502;10.722;2024-03-08T05:23:24;44.47;;;30.00;;
14251;SDS011;7210;51.502;10.722;2024-03-08T05:25:51;43.03;;;29.47;;
14251;SDS011;7210;51.502;10.722;2024-03-08T05:28:18;43.37;;;30.23;;
14251;SDS011;7210;51.502;10.722;2024-03-08T05:30:47;43.87;;;30.03;;
14251;SDS011;7210;51.502;10.722;2024-03-08T05:33:14;44.60;;;29.73;;
14251;SDS011;7210;51.502;10.722;2024-03-08T05:35:41;41.70;;;29.70;;
14251;SDS011;7210;51.502;10.722;2024-03-08T05:38:08;43.73;;;28.90;;
14251;SDS011;7210;51.502;10.722;2024-03-08T05:40:38;44.33;;;29.53;;
14251;SDS011;7210;51.502;10.722;2024-03-08T05:43:05;45.90;;;30.00;;
14251;SDS011;7210;51.502;10.722;2024-03-08T05:45:32;42.27;;;29.53;;
14251;SDS011;7210;51.502;10.722;2024-03-08T05:48:00;43.37;;;28.97;;
14251;SDS011;7210;51.502;10.722;2024-03-08T05:50:28;40.97;;;28.97;;
14251;SDS011;7210;51.502;10.722;2024-03-08T05:52:55;45.20;;;29.90;;
14251;SDS011;7210;51.502;10.722;2024-03-08T05:55:22;41.40;;;29.33;;
14251;SDS011;7210;51.502;10.722;2024-03-08T05:57:49;44.03;;;30.50;;
14251;SDS011;7210;51.502;10.722;2024-03-08T06:00:19;46.07;;;30.60;;
14251;SDS011;7210;51.502;10.722;2024-03-08T06:02:47;48.77;;;31.03;;
14251;SDS011;7210;51.502;10.722;2024-03-08T06:05:15;50.63;;;31.43;;
14251;SDS011;7210;51.502;10.722;2024-03-08T06:07:43;44.83;;;31.90;;
14251;SDS011;7210;51.502;10.722;2024-03-08T06:10:14;44.10;;;31.13;;
14251;SDS011;7210;51.502;10.722;2024-03-08T06:12:42;45.30;;;30.73;;
14251;SDS011;7210;51.502;10.722;2024-03-08T06:15:10;42.80;;;30.23;;
14251;SDS011;7210;51.502;10.722;2024-03-08T06:17:39;45.70;;;31.47;;
14251;SDS011;7210;51.502;10.722;2024-03-08T06:20:07;44.10;;;29.73;;
14251;SDS011;7210;51.502;10.722;2024-03-08T06:22:39;42.00;;;29.10;;
14251;SDS011;7210;51.502;10.722;2024-03-08T06:25:07;45.33;;;29.73;;
14251;SDS011;7210;51.502;10.722;2024-03-08T06:27:36;46.77;;;29.83;;
14251;SDS011;7210;51.502;10.722;2024-03-08T06:30:03;41.87;;;28.80;;
14251;SDS011;7210;51.502;10.722;2024-03-08T06:32:32;42.77;;;29.37;;
14251;SDS011;7210;51.502;10.722;2024-03-08T06:35:00;45.40;;;30.33;;
14251;SDS011;7210;51.502;10.722;2024-03-08T06:37:29;44.33;;;29.60;;
14251;SDS011;7210;51.502;10.722;2024-03-08T06:39:58;45.10;;;29.63;;
14251;SDS011;7210;51.502;10.722;2024-03-08T06:42:26;47.83;;;31.13;;
14251;SDS011;7210;51.502;10.722;2024-03-08T06:44:53;44.80;;;31.50;;
14251;SDS011;7210;51.502;10.722;2024-03-08T06:47:25;46.50;;;30.80;;
14251;SDS011;7210;51.502;10.722;2024-03-08T06:49:52;48.17;;;32.23;;
14251;SDS011;7210;51.502;10.722;2024-03-08T06:52:19;47.63;;;32.07;;
14251;SDS011;7210;51.502;10.722;2024-03-08T06:54:47;50.40;;;33.60;;
14251;SDS011;7210;51.502;10.722;2024-03-08T06:57:15;45.13;;;31.97;;
14251;SDS011;7210;51.502;10.722;2024-03-08T06:59:42;45.37;;;31.33;;
14251;SDS011;7210;51.502;10.722;2024-03-08T07:02:10;44.03;;;32.27;;
14251;SDS011;7210;51.502;10.722;2024-03-08T07:04:37;43.70;;;31.73;;
14251;SDS011;7210;51.502;10.722;2024-03-08T07:07:04;44.57;;;31.43;;
14251;SDS011;7210;51.502;10.722;2024-03-08T07:09:34;48.63;;;31.27;;
14251;SDS011;7210;51.502;10.722;2024-03-08T07:12:02;47.27;;;32.87;;
14251;SDS011;7210;51.502;10.722;2024-03-08T07:14:30;45.77;;;31.80;;
14251;SDS011;7210;51.502;10.722;2024-03-08T07:16:57;44.43;;;31.23;;
14251;SDS011;7210;51.502;10.722;2024-03-08T07:19:25;46.17;;;33.00;;
14251;SDS011;7210;51.502;10.722;2024-03-08T07:21:52;49.00;;;33.70;;
14251;SDS011;7210;51.502;10.722;2024-03-08T07:24:20;48.50;;;34.13;;
14251;SDS011;7210;51.502;10.722;2024-03-08T07:27:05;42.53;;;30.17;;
14251;SDS011;7210;51.502;10.722;2024-03-08T07:29:33;49.53;;;32.43;;
14251;SDS011;7210;51.502;10.722;2024-03-08T07:32:01;47.70;;;32.63;;
14251;SDS011;7210;51.502;10.722;2024-03-08T07:34:37;45.63;;;31.70;;
14251;SDS011;7210;51.502;10.722;2024-03-08T07:37:06;49.13;;;34.00;;
14251;SDS011;7210;51.502;10.722;2024-03-08T07:39:36;46.93;;;32.80;;
14251;SDS011;7210;51.502;10.722;2024-03-08T07:42:04;47.47;;;33.23;;
14251;SDS011;7210;51.502;10.722;2024-03-08T07:44:39;44.43;;;32.13;;
14251;SDS011;7210;51.502;10.722;2024-03-08T07:47:07;50.23;;;34.47;;
14251;SDS011;7210;51.502;10.722;2024-03-08T07:49:34;43.40;;;31.47;;
14251;SDS011;7210;51.502;10.722;2024-03-08T07:52:02;42.60;;;31.00;;
14251;SDS011;7210;51.502;10.722;2024-03-08T07:54:32;41.87;;;30.17;;
14251;SDS011;7210;51.502;10.722;2024-03-08T07:57:00;46.07;;;32.20;;
14251;SDS011;7210;51.502;10.722;2024-03-08T07:59:28;46.50;;;31.40;;
14251;SDS011;7210;51.502;10.722;2024-03-08T08:01:57;41.07;;;30.17;;
14251;SDS011;7210;51.502;10.722;2024-03-08T08:04:26;39.30;;;29.57;;
14251;SDS011;7210;51.502;10.722;2024-03-08T08:06:53;43.07;;;31.47;;
14251;SDS011;7210;51.502;10.722;2024-03-08T08:09:26;40.70;;;29.60;;
14251;SDS011;7210;51.502;10.722;2024-03-08T08:11:59;36.40;;;27.63;;
14251;SDS011;7210;51.502;10.722;2024-03-08T08:14:28;39.27;;;28.23;;
14251;SDS011;7210;51.502;10.722;2024-03-08T08:16:56;39.70;;;28.63;;
14251;SDS011;7210;51.502;10.722;2024-03-08T08:19:28;39.43;;;28.40;;
14251;SDS011;7210;51.502;10.722;2024-03-08T08:22:02;40.87;;;28.77;;
14251;SDS011;7210;51.502;10.722;2024-03-08T08:24:30;40.87;;;27.83;;
14251;SDS011;7210;51.502;10.722;2024-03-08T08:26:57;39.07;;;28.67;;
14251;SDS011;7210;51.502;10.722;2024-03-08T08:29:24;35.30;;;27.23;;
14251;SDS011;7210;51.502;10.722;2024-03-08T08:31:51;37.93;;;27.60;;
14251;SDS011;7210;51.502;10.722;2024-03-08T08:34:20;37.93;;;27.80;;
14251;SDS011;7210;51.502;10.722;2024-03-08T08:36:49;38.33;;;27.27;;
14251;SDS011;7210;51.502;10.722;2024-03-08T08:39:20;39.13;;;28.63;;
14251;SDS011;7210;51.502;10.722;2024-03-08T08:41:48;40.73;;;28.27;;
14251;SDS011;7210;51.502;10.722;2024-03-08T08:44:15;38.20;;;27.67;;
14251;SDS011;7210;51.502;10.722;2024-03-08T08:46:42;40.37;;;28.77;;
14251;SDS011;7210;51.502;10.722;2024-03-08T08:49:09;36.00;;;27.73;;
14251;SDS011;7210;51.502;10.722;2024-03-08T08:51:49;40.10;;;27.57;;
14251;SDS011;7210;51.502;10.722;2024-03-08T08:54:16;41.30;;;27.43;;
14251;SDS011;7210;51.502;10.722;2024-03-08T08:56:43;38.67;;;28.63;;
14251;SDS011;7210;51.502;10.722;2024-03-08T08:59:14;40.57;;;28.20;;
14251;SDS011;7210;51.502;10.722;2024-03-08T09:01:44;36.83;;;27.33;;
14251;SDS011;7210;51.502;10.722;2024-03-08T09:04:12;38.23;;;27.87;;
14251;SDS011;7210;51.502;10.722;2024-03-08T09:06:39;37.20;;;27.10;;
14251;SDS011;7210;51.502;10.722;2024-03-08T09:09:08;39.17;;;28.07;;
14251;SDS011;7210;51.502;10.722;2024-03-08T09:11:36;38.80;;;27.77;;
14251;SDS011;7210;51.502;10.722;2024-03-08T09:14:06;41.43;;;28.23;;
14251;SDS011;7210;51.502;10.722;2024-03-08T09:16:33;36.17;;;27.30;;
14251;SDS011;7210;51.502;10.722;2024-03-08T09:19:02;38.77;;;28.60;;
14251;SDS011;7210;51.502;10.722;2024-03-08T09:21:30;37.40;;;27.37;;
14251;SDS011;7210;51.502;10.722;2024-03-08T09:24:02;39.77;;;26.73;;
14251;SDS011;7210;51.502;10.722;2024-03-08T09:26:31;37.23;;;27.27;;
14251;SDS011;7210;51.502;10.722;2024-03-08T09:29:02;37.37;;;27.73;;
14251;SDS011;7210;51.502;10.722;2024-03-08T09:31:32;36.23;;;27.40;;
14251;SDS011;7210;51.502;10.722;2024-03-08T09:34:02;37.63;;;27.20;;
14251;SDS011;7210;51.502;10.722;2024-03-08T09:36:29;35.80;;;27.73;;
14251;SDS011;7210;51.502;10.722;2024-03-08T09:39:02;35.27;;;27.43;;
14251;SDS011;7210;51.502;10.722;2024-03-08T09:41:34;35.40;;;27.07;;
14251;SDS011;7210;51.502;10.722;2024-03-08T09:44:01;33.87;;;26.30;;
14251;SDS011;7210;51.502;10.722;2024-03-08T09:46:30;36.87;;;26.80;;
14251;SDS011;7210;51.502;10.722;2024-03-08T09:49:02;37.60;;;28.17;;
14251;SDS011;7210;51.502;10.722;2024-03-08T09:51:30;38.30;;;27.37;;
14251;SDS011;7210;51.502;10.722;2024-03-08T09:54:01;36.87;;;26.17;;
14251;SDS011;7210;51.502;10.722;2024-03-08T09:56:29;36.10;;;25.83;;
14251;SDS011;7210;51.502;10.722;2024-03-08T09:59:01;34.33;;;25.43;;
14251;SDS011;7210;51.502;10.722;2024-03-08T10:02:05;37.87;;;27.53;;
14251;SDS011;7210;51.502;10.722;2024-03-08T10:04:40;37.33;;;28.03;;
14251;SDS011;7210;51.502;10.722;2024-03-08T10:07:07;38.63;;;27.80;;
14251;SDS011;7210;51.502;10.722;2024-03-08T10:09:34;35.03;;;25.47;;
14251;SDS011;7210;51.502;10.722;2024-03-08T10:12:04;33.80;;;26.20;;
14251;SDS011;7210;51.502;10.722;2024-03-08T10:14:32;34.10;;;26.90;;
14251;SDS011;7210;51.502;10.722;2024-03-08T10:17:03;38.13;;;27.30;;
14251;SDS011;7210;51.502;10.722;2024-03-08T10:19:30;36.17;;;28.00;;
14251;SDS011;7210;51.502;10.722;2024-03-08T10:21:58;31.77;;;25.03;;
14251;SDS011;7210;51.502;10.722;2024-03-08T10:24:25;38.47;;;26.67;;
14251;SDS011;7210;51.502;10.722;2024-03-08T10:26:52;35.37;;;26.03;;
14251;SDS011;7210;51.502;10.722;2024-03-08T10:29:21;34.87;;;25.83;;
14251;SDS011;7210;51.502;10.722;2024-03-08T10:31:50;33.97;;;26.50;;
14251;SDS011;7210;51.502;10.722;2024-03-08T10:34:17;34.23;;;24.70;;
14251;SDS011;7210;51.502;10.722;2024-03-08T10:36:44;34.43;;;25.23;;
14251;SDS011;7210;51.502;10.722;2024-03-08T10:39:19;35.27;;;25.77;;
14251;SDS011;7210;51.502;10.722;2024-03-08T10:41:51;34.40;;;25.30;;
14251;SDS011;7210;51.502;10.722;2024-03-08T10:44:29;31.20;;;24.37;;
14251;SDS011;7210;51.502;10.722;2024-03-08T10:47:17;32.27;;;24.70;;
14251;SDS011;7210;51.502;10.722;2024-03-08T10:49:51;31.73;;;25.33;;
14251;SDS011;7210;51.502;10.722;2024-03-08T10:52:29;31.77;;;24.47;;
14251;SDS011;7210;51.502;10.722;2024-03-08T10:54:57;35.33;;;26.50;;
14251;SDS011;7210;51.502;10.722;2024-03-08T10:57:25;33.30;;;24.87;;
14251;SDS011;7210;51.502;10.722;2024-03-08T10:59:55;33.57;;;25.53;;
14251;SDS011;7210;51.502;10.722;2024-03-08T11:02:23;31.97;;;23.90;;
14251;SDS011;7210;51.502;10.722;2024-03-08T11:04:53;32.93;;;24.53;;
14251;SDS011;7210;51.502;10.722;2024-03-08T11:07:21;32.90;;;25.53;;
14251;SDS011;7210;51.502;10.722;2024-03-08T11:09:49;34.43;;;24.97;;
14251;SDS011;7210;51.502;10.722;2024-03-08T11:12:22;31.17;;;24.60;;
14251;SDS011;7210;51.502;10.722;2024-03-08T11:14:55;29.93;;;25.23;;
14251;SDS011;7210;51.502;10.722;2024-03-08T11:17:32;31.50;;;24.77;;
14251;SDS011;7210;51.502;10.722;2024-03-08T11:20:20;30.87;;;24.10;;
14251;SDS011;7210;51.502;10.722;2024-03-08T11:22:51;33.73;;;24.07;;
14251;SDS011;7210;51.502;10.722;2024-03-08T11:25:30;33.90;;;26.63;;
14251;SDS011;7210;51.502;10.722;2024-03-08T11:28:11;31.40;;;23.40;;
14251;SDS011;7210;51.502;10.722;2024-03-08T11:30:46;31.27;;;25.87;;
14251;SDS011;7210;51.502;10.722;2024-03-08T11:33:49;29.10;;;24.03;;
14251;SDS011;7210;51.502;10.722;2024-03-08T11:36:20;28.87;;;24.30;;
14251;SDS011;7210;51.502;10.722;2024-03-08T11:38:49;30.10;;;24.60;;
14251;SDS011;7210;51.502;10.722;2024-03-08T11:41:18;33.40;;;24.90;;
14251;SDS011;7210;51.502;10.722;2024-03-08T11:43:47;32.57;;;24.37;;
14251;SDS011;7210;51.502;10.722;2024-03-08T11:46:16;33.87;;;25.23;;
14251;SDS011;7210;51.502;10.722;2024-03-08T11:48:46;33.93;;;25.60;;
14251;SDS011;7210;51.502;10.722;2024-03-08T11:51:14;31.70;;;25.03;;
14251;SDS011;7210;51.502;10.722;2024-03-08T11:53:43;30.10;;;24.97;;
14251;SDS011;7210;51.502;10.722;2024-03-08T11:56:11;31.57;;;25.53;;
14251;SDS011;7210;51.502;10.722;2024-03-08T11:58:41;34.37;;;25.70;;
14251;SDS011;7210;51.502;10.722;2024-03-08T12:01:14;31.57;;;24.33;;
14251;SDS011;7210;51.502;10.722;2024-03-08T12:03:44;30.57;;;24.37;;
14251;SDS011;7210;51.502;10.722;2024-03-08T12:06:19;29.80;;;24.83;;
14251;SDS011;7210;51.502;10.722;2024-03-08T12:08:47;30.23;;;24.57;;
14251;SDS011;7210;51.502;10.722;2024-03-08T12:11:16;30.73;;;24.53;;
14251;SDS011;7210;51.502;10.722;2024-03-08T12:13:48;30.90;;;24.43;;
14251;SDS011;7210;51.502;10.722;2024-03-08T12:16:18;33.33;;;25.77;;
14251;SDS011;7210;51.502;10.722;2024-03-08T12:18:46;30.77;;;25.10;;
14251;SDS011;7210;51.502;10.722;2024-03-08T12:21:14;29.10;;;24.27;;
14251;SDS011;7210;51.502;10.722;2024-03-08T12:24:01;31.80;;;25.40;;
14251;SDS011;7210;51.502;10.722;2024-03-08T12:26:34;37.80;;;25.43;;
14251;SDS011;7210;51.502;10.722;2024-03-08T12:29:16;28.83;;;25.00;;
14251;SDS011;7210;51.502;10.722;2024-03-08T12:31:52;33.00;;;25.70;;
14251;SDS011;7210;51.502;10.722;2024-03-08T12:34:26;30.07;;;23.93;;
14251;SDS011;7210;51.502;10.722;2024-03-08T12:36:54;28.93;;;24.17;;
14251;SDS011;7210;51.502;10.722;2024-03-08T12:39:22;30.27;;;24.57;;
14251;SDS011;7210;51.502;10.722;2024-03-08T12:41:52;29.93;;;25.83;;
14251;SDS011;7210;51.502;10.722;2024-03-08T12:44:19;29.13;;;24.70;;
14251;SDS011;7210;51.502;10.722;2024-03-08T12:46:47;32.10;;;26.07;;
14251;SDS011;7210;51.502;10.722;2024-03-08T12:49:21;32.43;;;25.47;;
14251;SDS011;7210;51.502;10.722;2024-03-08T12:51:48;29.67;;;25.90;;
14251;SDS011;7210;51.502;10.722;2024-03-08T12:54:17;30.87;;;25.53;;
14251;SDS011;7210;51.502;10.722;2024-03-08T12:56:48;30.30;;;23.77;;
14251;SDS011;7210;51.502;10.722;2024-03-08T12:59:18;27.57;;;23.03;;
14251;SDS011;7210;51.502;10.722;2024-03-08T13:01:50;30.03;;;25.50;;
14251;SDS011;7210;51.502;10.722;2024-03-08T13:04:21;30.03;;;25.00;;
14251;SDS011;7210;51.502;10.722;2024-03-08T13:06:50;32.43;;;25.17;;
14251;SDS011;7210;51.502;10.722;2024-03-08T13:09:17;28.30;;;24.43;;
14251;SDS011;7210;51.502;10.722;2024-03-08T13:11:45;30.77;;;24.57;;
14251;SDS011;7210;51.502;10.722;2024-03-08T13:14:12;29.27;;;24.37;;
14251;SDS011;7210;51.502;10.722;2024-03-08T13:16:39;28.97;;;24.77;;
14251;SDS011;7210;51.502;10.722;2024-03-08T13:19:06;29.53;;;24.03;;
14251;SDS011;7210;51.502;10.722;2024-03-08T13:21:35;28.63;;;24.23;;
14251;SDS011;7210;51.502;10.722;2024-03-08T13:24:03;29.43;;;24.20;;
14251;SDS011;7210;51.502;10.722;2024-03-08T13:26:31;27.33;;;24.17;;
14251;SDS011;7210;51.502;10.722;2024-03-08T13:28:59;28.60;;;24.43;;
14251;SDS011;7210;51.502;10.722;2024-03-08T13:31:26;28.00;;;23.67;;
14251;SDS011;7210;51.502;10.722;2024-03-08T13:33:53;30.37;;;24.10;;
14251;SDS011;7210;51.502;10.722;2024-03-08T13:36:23;29.50;;;24.50;;
14251;SDS011;7210;51.502;10.722;2024-03-08T13:38:57;27.07;;;23.47;;
14251;SDS011;7210;51.502;10.722;2024-03-08T13:41:32;27.53;;;23.43;;
14251;SDS011;7210;51.502;10.722;2024-03-08T13:43:59;27.47;;;22.83;;
14251;SDS011;7210;51.502;10.722;2024-03-08T13:46:26;30.20;;;23.83;;
14251;SDS011;7210;51.502;10.722;2024-03-08T13:48:53;28.83;;;23.93;;
14251;SDS011;7210;51.502;10.722;2024-03-08T13:51:27;30.03;;;24.50;;
14251;SDS011;7210;51.502;10.722;2024-03-08T13:53:55;28.23;;;23.37;;
14251;SDS011;7210;51.502;10.722;2024-03-08T13:56:25;28.23;;;23.97;;
14251;SDS011;7210;51.502;10.722;2024-03-08T13:58:56;26.23;;;23.23;;
14251;SDS011;7210;51.502;10.722;2024-03-08T14:01:26;28.20;;;23.60;;
14251;SDS011;7210;51.502;10.722;2024-03-08T14:03:53;26.37;;;23.10;;
14251;SDS011;7210;51.502;10.722;2024-03-08T14:06:26;26.63;;;22.87;;
14251;SDS011;7210;51.502;10.722;2024-03-08T14:08:53;27.33;;;21.53;;
14251;SDS011;7210;51.502;10.722;2024-03-08T14:11:24;27.23;;;22.97;;
14251;SDS011;7210;51.502;10.722;2024-03-08T14:13:56;26.00;;;21.70;;
14251;SDS011;7210;51.502;10.722;2024-03-08T14:16:23;23.97;;;20.83;;
14251;SDS011;7210;51.502;10.722;2024-03-08T14:18:51;29.00;;;21.87;;
14251;SDS011;7210;51.502;10.722;2024-03-08T14:21:18;26.83;;;22.07;;
14251;SDS011;7210;51.502;10.722;2024-03-08T14:23:45;25.80;;;22.20;;
14251;SDS011;7210;51.502;10.722;2024-03-08T14:26:13;25.03;;;21.47;;
14251;SDS011;7210;51.502;10.722;2024-03-08T14:28:42;26.17;;;21.30;;
14251;SDS011;7210;51.502;10.722;2024-03-08T14:31:10;26.80;;;21.30;;
14251;SDS011;7210;51.502;10.722;2024-03-08T14:33:37;25.30;;;21.57;;